Time;durP1;ratioP1;P1;durP2;ratioP2;P2;SDS_P1;SDS_P2;PMS_P1;PMS_P2;Temp;Humidity;BMP_temperature;BMP_pressure;BME280_temperature;BME280_humidity;BME280_pressure;Samples;Min_cycle;Max_cycle;Signal;HPM_P1;HPM_P2
2023/06/01 04:14:35;;;;;;;12.88;9.07;;;;;;;13.69;100.00;100450.91;5554757;32;271420;-87
2023/06/01 04:17:40;;;;;;;13.13;9.00;;;;;;;13.74;100.00;100456.00;5544100;32;34121;-87
2023/06/01 04:20:43;;;;;;;12.40;8.05;;;;;;;13.88;100.00;100455.09;5544547;32;34370;-87
2023/06/01 04:23:46;;;;;;;11.48;7.80;;;;;;;14.03;100.00;100458.63;5544310;32;34656;-87
2023/06/01 04:26:50;;;;;;;9.90;7.72;;;;;;;14.18;100.00;100462.12;5544428;32;33465;-87
2023/06/01 04:29:53;;;;;;;11.32;7.20;;;;;;;14.35;100.00;100454.88;5544167;32;33412;-87
2023/06/01 04:32:56;;;;;;;10.60;7.50;;;;;;;14.54;100.00;100449.19;5547015;32;34163;-87
2023/06/01 04:36:00;;;;;;;10.43;7.35;;;;;;;14.74;100.00;100452.38;5544090;32;33779;-87
2023/06/01 04:39:06;;;;;;;8.98;7.12;;;;;;;14.92;100.00;100453.84;5544428;32;33634;-87
2023/06/01 04:42:13;;;;;;;8.07;6.32;;;;;;;15.05;100.00;100459.19;5546011;32;33693;-87
2023/06/01 04:45:16;;;;;;;9.48;6.70;;;;;;;15.30;100.00;100459.38;5548827;32;34342;-87
2023/06/01 04:48:20;;;;;;;8.88;6.50;;;;;;;15.47;100.00;100453.72;5544526;32;34336;-87
2023/06/01 04:51:23;;;;;;;8.40;6.95;;;;;;;15.60;100.00;100456.38;5543867;32;33418;-87
2023/06/01 04:54:26;;;;;;;11.20;6.28;;;;;;;15.63;100.00;100455.31;5543838;32;33549;-87
2023/06/01 04:57:29;;;;;;;10.30;6.70;;;;;;;15.79;100.00;100457.75;5544171;32;33529;-88
2023/06/01 05:00:32;;;;;;;11.35;6.57;;;;;;;16.05;100.00;100463.13;5545727;32;33612;-87
2023/06/01 05:03:35;;;;;;;9.02;6.20;;;;;;;16.47;100.00;100461.94;5551361;32;34160;-87
2023/06/01 05:06:40;;;;;;;11.73;7.32;;;;;;;16.67;100.00;100466.69;5551890;32;33487;-87
2023/06/01 05:09:42;;;;;;;10.77;6.47;;;;;;;16.87;100.00;100468.81;5552033;32;34777;-87
2023/06/01 05:12:45;;;;;;;8.45;6.15;;;;;;;17.16;100.00;100461.31;5551315;32;34026;-86
2023/06/01 05:15:48;;;;;;;9.10;5.80;;;;;;;17.79;100.00;100468.09;5543286;32;33876;-86
2023/06/01 05:18:55;;;;;;;8.30;6.20;;;;;;;18.01;100.00;100455.69;5543887;32;34464;-86
2023/06/01 05:21:59;;;;;;;10.60;6.20;;;;;;;18.42;100.00;100464.06;5544317;32;33788;-86
2023/06/01 05:25:03;;;;;;;8.75;5.55;;;;;;;20.85;88.61;100462.16;5535106;32;33687;-86
2023/06/01 05:28:06;;;;;;;8.75;4.90;;;;;;;23.97;70.61;100462.44;5531839;32;33746;-86
2023/06/01 05:31:10;;;;;;;9.98;5.47;;;;;;;26.74;58.44;100480.06;5531055;32;34088;-86
2023/06/01 05:34:13;;;;;;;7.85;5.15;;;;;;;28.58;48.05;100477.16;5530624;32;33676;-86
2023/06/01 05:37:16;;;;;;;6.50;4.45;;;;;;;29.38;43.53;100474.34;5536951;32;34303;-86
2023/06/01 05:40:19;;;;;;;11.12;5.07;;;;;;;29.72;41.21;100469.97;5533813;32;34087;-90
2023/06/01 05:43:22;;;;;;;7.87;4.80;;;;;;;30.10;39.87;100467.87;5530950;32;33877;-91
2023/06/01 05:46:25;;;;;;;8.10;4.53;;;;;;;30.95;37.85;100469.38;5530571;32;33804;-91
2023/06/01 05:49:31;;;;;;;6.87;4.37;;;;;;;31.06;37.39;100466.03;5529361;32;34411;-91
2023/06/01 05:52:33;;;;;;;5.47;4.75;;;;;;;30.35;38.71;100459.12;5528762;32;34801;-88
2023/06/01 05:55:37;;;;;;;8.18;5.03;;;;;;;29.88;39.78;100467.13;5525688;32;33906;-87
2023/06/01 05:58:40;;;;;;;8.70;4.57;;;;;;;29.71;38.82;100468.28;5528359;32;33849;-87
2023/06/01 06:01:44;;;;;;;6.47;4.53;;;;;;;30.76;38.01;100458.19;5523940;32;33576;-87
2023/06/01 06:04:47;;;;;;;8.85;4.37;;;;;;;32.25;35.20;100469.81;5522132;32;34478;-87
2023/06/01 06:07:49;;;;;;;7.78;4.80;;;;;;;33.61;32.88;100477.94;5516487;32;34505;-87
2023/06/01 06:10:52;;;;;;;12.50;4.30;;;;;;;33.90;31.24;100475.50;5514229;32;32648;-85
2023/06/01 06:13:55;;;;;;;7.18;4.68;;;;;;;33.37;31.88;100476.91;5518676;32;33765;-86
2023/06/01 06:16:58;;;;;;;6.15;4.90;;;;;;;33.18;31.40;100480.44;5515476;32;34515;-86
2023/06/01 06:20:00;;;;;;;7.85;4.10;;;;;;;33.39;31.74;100475.59;5511614;32;32936;-86
2023/06/01 06:23:03;;;;;;;5.22;4.00;;;;;;;32.17;28.13;100477.44;5521042;32;33551;-87
2023/06/01 06:26:06;;;;;;;5.55;4.00;;;;;;;33.89;26.95;100476.59;5532474;32;33762;-88
2023/06/01 06:29:10;;;;;;;6.35;4.00;;;;;;;32.88;26.26;100478.31;5528363;32;33841;-87
2023/06/01 06:32:13;;;;;;;18.60;4.35;;;;;;;31.33;28.45;100490.69;5524384;32;32166;-88
2023/06/01 06:35:16;;;;;;;7.87;4.12;;;;;;;30.89;31.06;100479.28;5527279;32;33852;-88
2023/06/01 06:38:18;;;;;;;9.40;4.18;;;;;;;29.25;31.92;100472.34;5527076;32;33792;-88
2023/06/01 06:41:22;;;;;;;7.45;4.12;;;;;;;26.55;34.92;100465.91;5533370;32;33596;-87
2023/06/01 06:44:26;;;;;;;19.83;4.35;;;;;;;26.01;36.59;100459.38;5521464;32;33800;-87
2023/06/01 06:47:32;;;;;;;6.82;4.20;;;;;;;26.28;37.33;100453.66;5524775;32;33490;-86
2023/06/01 06:50:35;;;;;;;15.07;4.20;;;;;;;25.39;38.57;100455.44;5523131;32;33566;-86
2023/06/01 06:53:38;;;;;;;7.93;4.45;;;;;;;25.04;37.67;100461.03;5524587;32;33482;-87
2023/06/01 06:56:40;;;;;;;7.55;4.47;;;;;;;24.93;38.67;100467.66;5528025;32;33770;-88
2023/06/01 06:59:43;;;;;;;12.05;4.45;;;;;;;25.16;39.74;100456.97;5519686;32;33890;-87
2023/06/01 07:02:46;;;;;;;13.30;4.12;;;;;;;25.05;38.08;100451.91;5516895;32;33911;-87
2023/06/01 07:05:49;;;;;;;10.50;4.62;;;;;;;24.97;39.84;100449.19;5517053;32;34552;-87
2023/06/01 07:08:52;;;;;;;6.68;4.22;;;;;;;25.14;38.91;100458.19;5527502;32;34482;-87
2023/06/01 07:11:55;;;;;;;6.28;3.97;;;;;;;24.75;38.91;100457.78;5522514;32;34587;-87
2023/06/01 07:14:58;;;;;;;9.50;3.85;;;;;;;25.52;40.36;100449.47;5526600;32;33790;-88
2023/06/01 07:18:01;;;;;;;6.37;3.90;;;;;;;25.61;38.03;100453.91;5518190;32;33576;-87
2023/06/01 07:21:04;;;;;;;10.48;4.50;;;;;;;26.18;34.80;100451.97;5529467;32;34691;-88
2023/06/01 07:24:07;;;;;;;28.45;5.87;;;;;;;25.55;35.85;100457.31;5524453;32;34278;-88
2023/06/01 07:27:10;;;;;;;7.43;4.18;;;;;;;26.18;36.91;100446.53;5521002;32;33442;-88
2023/06/01 07:30:13;;;;;;;7.22;4.05;;;;;;;26.27;34.87;100444.66;5530375;32;33389;-87
2023/06/01 07:33:16;;;;;;;13.55;4.20;;;;;;;26.01;33.77;100453.06;5531050;32;33821;-88
2023/06/01 07:36:20;;;;;;;7.25;3.95;;;;;;;26.04;33.75;100450.84;5531330;32;33979;-87
2023/06/01 07:39:22;;;;;;;4.97;3.67;;;;;;;26.58;33.19;100460.09;5538600;32;34445;-88
2023/06/01 07:42:25;;;;;;;14.13;4.03;;;;;;;26.61;34.04;100451.56;5539936;32;33870;-88
2023/06/01 07:45:28;;;;;;;7.85;3.90;;;;;;;27.09;34.91;100442.41;5530848;32;33656;-88
2023/06/01 07:48:35;;;;;;;5.95;4.07;;;;;;;26.57;33.93;100450.25;5524383;32;33326;-88
2023/06/01 07:51:38;;;;;;;7.93;4.00;;;;;;;27.15;34.85;100438.94;5529950;32;33820;-87
2023/06/01 07:54:41;;;;;;;5.85;3.90;;;;;;;27.05;33.49;100446.50;5530877;32;33820;-87
2023/06/01 07:57:44;;;;;;;10.15;4.20;;;;;;;27.37;33.19;100441.81;5530788;32;34909;-87
2023/06/01 08:00:46;;;;;;;7.85;3.87;;;;;;;27.83;33.33;100443.53;5526055;32;33657;-87
2023/06/01 08:03:51;;;;;;;8.80;3.78;;;;;;;28.44;31.16;100443.44;5536656;32;33895;-90
2023/06/01 08:06:53;;;;;;;6.30;3.75;;;;;;;28.24;32.40;100441.31;5531955;32;32525;-91
2023/06/01 08:09:57;;;;;;;10.15;4.07;;;;;;;28.81;30.74;100438.75;5535070;32;34834;-91
2023/06/01 08:13:01;;;;;;;5.15;3.80;;;;;;;27.34;33.09;100433.16;5535653;32;34812;-89
2023/06/01 08:16:04;;;;;;;4.62;3.60;;;;;;;28.37;31.30;100430.56;5532087;32;33615;-88
2023/06/01 08:19:07;;;;;;;8.55;3.80;;;;;;;28.50;31.28;100427.16;5523692;32;34045;-88
2023/06/01 08:22:11;;;;;;;6.70;3.67;;;;;;;29.28;31.46;100421.97;5533134;32;35851;-88
2023/06/01 08:25:14;;;;;;;7.20;3.85;;;;;;;29.45;31.65;100420.59;5539153;32;34311;-88
2023/06/01 08:28:17;;;;;;;8.90;4.00;;;;;;;29.23;29.36;100424.44;5537235;32;35580;-88
2023/06/01 08:31:22;;;;;;;5.43;3.70;;;;;;;29.75;29.15;100421.44;5548722;32;33624;-87
2023/06/01 08:34:25;;;;;;;9.00;3.65;;;;;;;29.96;29.50;100425.94;5527016;32;33664;-87
2023/06/01 08:37:27;;;;;;;6.70;4.07;;;;;;;30.47;29.64;100421.06;5530213;32;33673;-87
2023/06/01 08:40:33;;;;;;;16.27;4.95;;;;;;;30.52;28.80;100427.59;5530690;32;33717;-87
2023/06/01 08:43:39;;;;;;;13.55;4.85;;;;;;;31.22;28.97;100425.53;5537426;32;33776;-87
2023/06/01 08:46:42;;;;;;;7.43;3.90;;;;;;;31.10;27.87;100429.97;5519670;32;33797;-88
2023/06/01 08:49:45;;;;;;;9.68;4.20;;;;;;;31.66;28.39;100423.16;5509477;32;33799;-88
2023/06/01 08:52:52;;;;;;;9.10;4.00;;;;;;;32.06;28.35;100418.59;5509004;32;33814;-88
2023/06/01 08:55:56;;;;;;;9.80;3.72;;;;;;;32.77;26.82;100424.09;5519587;32;33671;-88
2023/06/01 08:59:00;;;;;;;11.75;4.15;;;;;;;32.90;24.91;100423.16;5528951;32;33553;-88
2023/06/01 09:02:03;;;;;;;5.60;3.58;;;;;;;32.36;26.09;100418.88;5526106;32;34855;-87
2023/06/01 09:05:06;;;;;;;9.68;4.20;;;;;;;32.93;25.13;100415.31;5532473;32;34042;-88
2023/06/01 09:08:09;;;;;;;8.60;4.18;;;;;;;32.98;25.41;100411.91;5532425;32;33620;-88
2023/06/01 09:11:13;;;;;;;10.00;4.22;;;;;;;33.43;25.84;100404.53;5532384;32;33885;-88
2023/06/01 09:14:23;;;;;;;7.47;3.67;;;;;;;33.60;24.89;100405.59;5530675;32;33886;-88
2023/06/01 09:17:26;;;;;;;5.70;3.70;;;;;;;33.44;23.83;100398.78;5532249;32;33790;-88
2023/06/01 09:20:31;;;;;;;8.13;4.28;;;;;;;33.63;23.85;100406.22;5532715;32;33877;-88
2023/06/01 09:23:34;;;;;;;7.10;4.12;;;;;;;33.43;24.10;100399.03;5532111;32;34185;-88
2023/06/01 09:26:37;;;;;;;8.23;4.10;;;;;;;32.90;25.10;100398.44;5533140;32;34011;-88
2023/06/01 09:29:55;;;;;;;6.10;3.92;;;;;;;33.68;24.02;100401.72;5533086;32;33657;-88
2023/06/01 09:33:16;;;;;;;7.70;4.10;;;;;;;34.19;23.35;100396.00;5540702;32;34048;-88
2023/06/01 09:36:25;;;;;;;8.00;4.37;;;;;;;33.83;23.77;100398.56;5550630;32;33766;-88
2023/06/01 09:39:33;;;;;;;15.75;4.35;;;;;;;34.18;23.54;100391.56;5531374;32;34074;-89
2023/06/01 09:42:38;;;;;;;7.18;4.20;;;;;;;35.80;22.12;100397.06;5521549;32;35159;-93
2023/06/01 09:45:41;;;;;;;4.93;4.30;;;;;;;35.34;22.00;100389.47;5525825;32;33687;-90
2023/06/01 09:48:45;;;;;;;9.02;4.15;;;;;;;35.98;21.04;100397.97;5537812;32;33059;-89
2023/06/01 09:51:48;;;;;;;9.93;4.20;;;;;;;35.69;22.33;100395.22;5548663;32;33962;-89
2023/06/01 09:54:58;;;;;;;5.95;4.12;;;;;;;36.01;21.64;100398.31;5521917;32;33728;-89
2023/06/01 09:58:21;;;;;;;9.00;4.47;;;;;;;35.98;22.36;100398.81;5517780;32;33793;-89
2023/06/01 10:01:26;;;;;;;7.47;4.50;;;;;;;34.58;23.02;100392.06;5536321;32;33867;-89
2023/06/01 10:04:30;;;;;;;7.90;4.12;;;;;;;33.24;23.90;100385.28;5534102;32;33815;-89
2023/06/01 10:07:37;;;;;;;13.85;4.57;;;;;;;34.42;22.91;100380.63;5523037;32;34442;-89
2023/06/01 10:10:46;;;;;;;5.07;3.90;;;;;;;34.02;24.17;100376.53;5561743;26;33650;-89
2023/06/01 10:13:50;;;;;;;5.70;4.43;;;;;;;33.69;23.64;100375.87;5601801;26;33431;-89
2023/06/01 10:16:53;;;;;;;7.20;4.40;;;;;;;34.00;24.35;100370.41;5555751;32;33712;-87
2023/06/01 10:19:57;;;;;;;8.15;4.18;;;;;;;34.74;22.79;100374.84;5569757;32;33595;-87
2023/06/01 10:23:01;;;;;;;12.10;4.90;;;;;;;35.24;22.53;100375.47;5557488;32;34096;-87
2023/06/01 10:26:10;;;;;;;13.85;4.90;;;;;;;36.51;20.93;100362.78;5550510;32;33567;-88
2023/06/01 10:29:17;;;;;;;7.68;4.20;;;;;;;37.38;20.34;100360.78;5560679;32;33899;-87
2023/06/01 10:32:37;;;;;;;8.70;4.50;;;;;;;37.38;20.10;100360.78;5558376;32;33810;-87
2023/06/01 10:35:40;;;;;;;6.10;4.32;;;;;;;36.57;21.83;100351.81;5541083;32;33536;-87
2023/06/01 10:38:43;;;;;;;5.82;4.18;;;;;;;36.54;21.74;100348.47;5566502;32;33448;-88
2023/06/01 10:41:46;;;;;;;10.13;4.40;;;;;;;35.74;22.22;100345.63;5553480;32;32484;-86
2023/06/01 10:44:49;;;;;;;8.30;4.30;;;;;;;34.46;23.70;100331.44;5560160;32;34671;-87
2023/06/01 10:47:52;;;;;;;7.37;4.30;;;;;;;34.08;23.56;100337.09;5565192;32;34557;-87
2023/06/01 10:51:18;;;;;;;7.35;4.62;;;;;;;33.58;25.21;100336.25;5548857;32;34224;-88
2023/06/01 10:54:27;;;;;;;7.22;4.32;;;;;;;33.58;24.18;100327.19;5560366;32;35037;-92
2023/06/01 10:57:30;;;;;;;6.85;4.87;;;;;;;33.77;24.43;100324.41;5538262;32;33723;-89
2023/06/01 11:00:39;;;;;;;4.82;4.32;;;;;;;33.90;24.86;100315.09;5551522;32;33956;-88
2023/06/01 11:03:44;;;;;;;5.37;4.45;;;;;;;34.25;23.23;100317.16;5561572;32;33809;-87
2023/06/01 11:06:48;;;;;;;7.53;4.93;;;;;;;34.30;23.75;100325.56;5543048;32;34150;-87
2023/06/01 11:09:50;;;;;;;9.27;4.80;;;;;;;33.13;24.15;100317.31;5554693;32;33572;-88
2023/06/01 11:13:17;;;;;;;5.95;4.47;;;;;;;32.65;25.48;100315.00;5552400;32;33931;-87
2023/06/01 11:16:26;;;;;;;12.85;4.57;;;;;;;32.52;26.10;100315.09;5552260;32;34185;-87
2023/06/01 11:19:31;;;;;;;7.90;4.82;;;;;;;32.26;27.13;100301.37;5545223;32;34633;-87
2023/06/01 11:22:38;;;;;;;8.75;4.65;;;;;;;31.85;26.76;100306.28;5531459;32;33934;-88
2023/06/01 11:26:01;;;;;;;5.90;4.47;;;;;;;32.63;26.46;100297.09;5534569;32;34042;-86
2023/06/01 11:29:08;;;;;;;7.78;4.87;;;;;;;32.45;26.96;100295.97;5544889;32;33503;-87
2023/06/01 11:32:14;;;;;;;10.15;4.85;;;;;;;31.59;27.67;100286.12;5565288;32;34496;-87
2023/06/01 11:35:20;;;;;;;7.53;5.20;;;;;;;31.48;27.94;100286.81;5554378;32;34624;-89
2023/06/01 11:38:23;;;;;;;6.50;4.80;;;;;;;30.31;30.29;100289.09;5564849;32;33951;-88
2023/06/01 11:41:26;;;;;;;11.32;5.75;;;;;;;31.13;28.27;100279.75;5544556;32;33992;-87
2023/06/01 11:44:29;;;;;;;7.55;5.15;;;;;;;30.92;27.99;100280.87;5538335;32;33497;-87
2023/06/01 11:47:32;;;;;;;7.90;5.07;;;;;;;30.63;28.73;100281.06;5546325;32;32164;-87
2023/06/01 11:50:35;;;;;;;10.23;4.97;;;;;;;30.49;29.33;100268.47;5550335;32;33708;-87
2023/06/01 11:53:39;;;;;;;7.05;4.72;;;;;;;30.82;28.55;100275.00;5563455;32;33529;-86
2023/06/01 11:56:42;;;;;;;7.57;4.65;;;;;;;30.44;29.88;100255.41;5568204;31;34044;-86
2023/06/01 11:59:47;;;;;;;8.50;4.85;;;;;;;31.05;27.95;100260.81;5552819;32;33916;-88
2023/06/01 12:03:06;;;;;;;6.47;4.87;;;;;;;30.23;28.70;100260.03;5553108;32;33611;-87
2023/06/01 12:06:19;;;;;;;5.30;4.80;;;;;;;30.12;29.12;100244.28;5547583;32;34040;-87
2023/06/01 12:09:21;;;;;;;6.53;4.53;;;;;;;30.64;29.39;100243.59;5548300;32;34677;-87
2023/06/01 12:12:25;;;;;;;16.83;5.72;;;;;;;30.02;28.44;100252.88;5548886;32;33930;-86
2023/06/01 12:15:27;;;;;;;8.50;4.97;;;;;;;29.43;29.12;100247.00;5550990;32;34923;-87
2023/06/01 12:18:31;;;;;;;7.95;4.60;;;;;;;29.03;30.82;100240.31;5553708;32;33659;-88
2023/06/01 12:21:35;;;;;;;8.43;4.70;;;;;;;29.94;30.08;100237.50;5560996;32;33965;-86
2023/06/01 12:24:38;;;;;;;7.97;5.57;;;;;;;30.29;29.94;100232.91;5550822;32;32542;-89
2023/06/01 12:27:40;;;;;;;8.45;5.28;;;;;;;30.23;30.20;100221.75;5539593;32;34490;-86
2023/06/01 12:30:44;;;;;;;6.28;5.35;;;;;;;29.35;30.72;100219.87;5540569;32;33626;-87
2023/06/01 12:33:48;;;;;;;6.80;5.53;;;;;;;30.27;30.08;100219.44;5535749;32;35709;-87
2023/06/01 12:36:51;;;;;;;8.30;5.15;;;;;;;28.75;30.47;100218.47;5547429;32;34473;-86
2023/06/01 12:40:00;;;;;;;6.68;4.40;;;;;;;28.02;31.13;100201.38;5552639;32;33746;-86
2023/06/01 12:43:16;;;;;;;8.65;5.18;;;;;;;28.09;32.45;100201.41;5549979;32;33861;-87
2023/06/01 12:46:23;;;;;;;7.72;4.85;;;;;;;28.11;32.47;100200.19;5555088;32;34135;-87
2023/06/01 12:49:27;;;;;;;5.62;4.68;;;;;;;28.88;32.63;100185.00;5560404;32;33550;-86
2023/06/01 12:52:30;;;;;;;6.75;5.35;;;;;;;29.67;30.30;100196.44;5543580;32;34492;-88
2023/06/01 12:55:33;;;;;;;5.28;4.62;;;;;;;29.77;30.13;100196.03;5546142;32;33666;-87
2023/06/01 12:58:36;;;;;;;6.12;4.90;;;;;;;29.03;30.70;100187.59;5554667;32;34361;-88
2023/06/01 13:01:39;;;;;;;8.10;5.53;;;;;;;29.39;31.49;100191.06;5555652;32;34848;-89
2023/06/01 13:04:44;;;;;;;9.23;5.00;;;;;;;29.04;31.09;100181.09;5550558;32;33996;-88
2023/06/01 13:07:47;;;;;;;5.95;4.80;;;;;;;29.52;30.49;100176.66;5555216;32;34322;-88
2023/06/01 13:10:50;;;;;;;6.57;4.60;;;;;;;29.40;31.43;100182.69;5570319;32;33591;-88
2023/06/01 13:13:55;;;;;;;7.10;4.85;;;;;;;28.92;30.88;100175.38;5616512;26;34369;-89
2023/06/01 13:16:58;;;;;;;6.47;4.97;;;;;;;28.28;32.11;100167.22;5552597;32;33859;-89
2023/06/01 13:20:03;;;;;;;12.23;4.93;;;;;;;28.55;32.57;100161.91;5568116;32;34959;-88
2023/06/01 13:23:06;;;;;;;7.75;4.70;;;;;;;29.26;30.15;100168.16;5584332;31;34806;-88
2023/06/01 13:26:10;;;;;;;5.78;4.80;;;;;;;29.28;30.16;100163.34;5544746;32;34251;-88
2023/06/01 13:29:13;;;;;;;9.50;5.22;;;;;;;29.27;29.61;100161.63;5544860;32;33871;-86
2023/06/01 13:32:16;;;;;;;9.90;5.20;;;;;;;29.01;30.39;100156.94;5551411;32;34828;-89
2023/06/01 13:35:19;;;;;;;5.82;5.20;;;;;;;28.70;30.31;100150.06;5551561;32;34276;-88
2023/06/01 13:38:22;;;;;;;6.62;5.07;;;;;;;28.89;30.74;100143.88;5550767;32;34099;-86
2023/06/01 13:41:25;;;;;;;7.07;4.85;;;;;;;29.01;30.94;100143.28;5557076;32;34070;-87
2023/06/01 13:44:29;;;;;;;7.95;4.85;;;;;;;28.85;31.74;100139.00;5558038;32;33699;-87
2023/06/01 13:47:31;;;;;;;8.90;5.25;;;;;;;28.98;29.92;100143.69;5558441;32;34024;-86
2023/06/01 13:50:36;;;;;;;5.68;4.90;;;;;;;29.30;29.74;100144.00;5552617;32;33974;-90
2023/06/01 13:57:31;;;;;;;8.95;5.15;;;;;;;29.56;28.84;100126.84;4112290;26;20116;-87
2023/06/01 14:00:34;;;;;;;6.75;4.87;;;;;;;29.62;29.93;100121.59;5525864;32;33948;-86
2023/06/01 14:03:38;;;;;;;7.32;4.85;;;;;;;28.83;31.15;100117.34;5518350;32;33904;-86
2023/06/01 14:06:41;;;;;;;6.62;5.47;;;;;;;28.85;31.52;100111.72;5537228;32;34894;-88
2023/06/01 14:09:44;;;;;;;6.93;5.32;;;;;;;28.61;32.66;100103.00;5531915;32;33917;-87
2023/06/01 14:12:47;;;;;;;12.20;5.28;;;;;;;28.45;34.15;100101.44;5525407;32;32745;-88
2023/06/01 14:15:50;;;;;;;11.02;5.68;;;;;;;27.75;34.68;100092.13;5524339;32;33624;-86
2023/06/01 14:18:53;;;;;;;7.05;5.20;;;;;;;27.76;33.62;100096.50;5527382;32;33961;-85
2023/06/01 14:21:56;;;;;;;8.18;4.87;;;;;;;27.92;33.14;100092.69;5524021;32;33772;-84
2023/06/01 14:24:58;;;;;;;5.53;4.90;;;;;;;28.11;32.03;100085.66;5518175;32;32278;-85
2023/06/01 14:28:02;;;;;;;7.47;5.30;;;;;;;28.15;32.53;100083.38;5512227;32;33417;-86
2023/06/01 14:31:04;;;;;;;6.80;4.95;;;;;;;27.83;33.46;100077.50;5511297;32;33840;-86
2023/06/01 14:34:08;;;;;;;7.32;5.57;;;;;;;27.70;34.73;100083.69;5511002;32;33514;-87
2023/06/01 14:37:13;;;;;;;6.25;5.57;;;;;;;27.43;36.30;100081.56;5523648;32;34184;-86
2023/06/01 14:40:17;;;;;;;8.30;5.60;;;;;;;26.99;35.05;100077.09;5527591;32;33983;-86
2023/06/01 14:43:19;;;;;;;9.02;5.47;;;;;;;27.20;35.93;100072.72;5519344;32;34427;-87
2023/06/01 14:46:23;;;;;;;7.55;4.95;;;;;;;27.50;34.52;100076.16;5511320;32;34843;-86
2023/06/01 14:49:28;;;;;;;8.45;5.28;;;;;;;27.71;34.82;100060.87;5510067;32;34431;-86
2023/06/01 14:52:44;;;;;;;8.95;5.45;;;;;;;27.89;35.16;100068.53;5510390;32;34834;-86
2023/06/01 14:55:47;;;;;;;6.82;5.40;;;;;;;27.63;34.71;100063.72;5513394;32;33624;-86
2023/06/01 14:58:50;;;;;;;6.50;5.28;;;;;;;27.51;35.23;100056.03;5511181;32;33833;-86
2023/06/01 15:01:53;;;;;;;7.93;4.97;;;;;;;27.39;34.94;100063.06;5516492;32;33395;-89
2023/06/01 15:04:58;;;;;;;11.98;5.28;;;;;;;27.26;35.73;100058.34;5590181;26;34112;-89
2023/06/01 15:08:01;;;;;;;9.88;5.57;;;;;;;27.22;35.96;100054.31;5532453;32;34930;-86
2023/06/01 15:11:04;;;;;;;10.57;4.95;;;;;;;27.20;36.62;100049.06;5529705;32;34176;-86
2023/06/01 15:14:07;;;;;;;7.10;5.47;;;;;;;27.20;36.47;100043.63;5529630;32;33509;-85
2023/06/01 15:17:10;;;;;;;6.95;5.32;;;;;;;27.08;36.78;100050.59;5527166;32;33855;-86
2023/06/01 15:20:13;;;;;;;7.05;5.40;;;;;;;27.20;37.14;100045.50;5522477;32;34645;-86
2023/06/01 15:23:16;;;;;;;7.05;5.70;;;;;;;27.57;36.71;100038.09;5515039;32;33847;-89
2023/06/01 15:26:18;;;;;;;8.43;5.18;;;;;;;27.37;37.80;100030.59;5516654;32;35182;-90
2023/06/01 15:29:21;;;;;;;7.22;5.30;;;;;;;27.40;36.48;100030.19;5518363;32;34681;-90
2023/06/01 15:32:24;;;;;;;7.15;5.25;;;;;;;27.41;36.72;100031.88;5514713;32;34029;-87
2023/06/01 15:35:27;;;;;;;7.20;5.72;;;;;;;27.53;36.91;100028.62;5511041;32;34089;-86
